sensor_id;sensor_type;location;lat;lon;timestamp;pressure;altitude;pressure_sealevel;temperature;humidity
17785;BME280;9016;53.582;10.062;2023-01-16T00:02:06;99608.91;;;7.69;78.04
17785;BME280;9016;53.582;10.062;2023-01-16T00:04:34;99614.41;;;7.66;77.92
17785;BME280;9016;53.582;10.062;2023-01-16T00:07:02;99604.66;;;7.66;78.99
17785;BME280;9016;53.582;10.062;2023-01-16T00:09:30;99606.13;;;7.58;79.27
17785;BME280;9016;53.582;10.062;2023-01-16T00:11:58;99605.56;;;7.53;78.86
17785;BME280;9016;53.582;10.062;2023-01-16T00:14:28;99599.31;;;7.54;79.63
17785;BME280;9016;53.582;10.062;2023-01-16T00:16:58;99601.03;;;7.67;79.67
17785;BME280;9016;53.582;10.062;2023-01-16T00:19:26;99596.59;;;7.68;79.01
17785;BME280;9016;53.582;10.062;2023-01-16T00:21:54;99591.25;;;7.82;79.68
17785;BME280;9016;53.582;10.062;2023-01-16T00:24:22;99590.38;;;7.81;78.92
17785;BME280;9016;53.582;10.062;2023-01-16T00:26:50;99588.66;;;7.80;78.88
17785;BME280;9016;53.582;10.062;2023-01-16T00:29:18;99579.88;;;7.80;78.68
17785;BME280;9016;53.582;10.062;2023-01-16T00:31:46;99574.13;;;7.86;79.15
17785;BME280;9016;53.582;10.062;2023-01-16T00:34:16;99575.00;;;7.99;78.35
17785;BME280;9016;53.582;10.062;2023-01-16T00:36:44;99576.13;;;7.70;79.26
17785;BME280;9016;53.582;10.062;2023-01-16T00:39:11;99581.75;;;7.65;79.58
17785;BME280;9016;53.582;10.062;2023-01-16T00:41:39;99580.38;;;7.60;79.69
17785;BME280;9016;53.582;10.062;2023-01-16T00:44:07;99576.22;;;7.56;81.22
17785;BME280;9016;53.582;10.062;2023-01-16T00:46:35;99572.59;;;7.57;80.43
17785;BME280;9016;53.582;10.062;2023-01-16T00:49:03;99575.59;;;7.65;80.61
17785;BME280;9016;53.582;10.062;2023-01-16T00:51:33;99564.81;;;7.80;79.90
17785;BME280;9016;53.582;10.062;2023-01-16T00:54:01;99566.16;;;7.73;79.84
17785;BME280;9016;53.582;10.062;2023-01-16T00:56:29;99569.34;;;7.78;78.58
17785;BME280;9016;53.582;10.062;2023-01-16T00:58:56;99567.53;;;7.66;79.01
17785;BME280;9016;53.582;10.062;2023-01-16T01:01:24;99568.94;;;7.72;79.67
17785;BME280;9016;53.582;10.062;2023-01-16T01:03:52;99566.50;;;7.69;79.16
17785;BME280;9016;53.582;10.062;2023-01-16T01:06:22;99567.53;;;7.66;78.61
17785;BME280;9016;53.582;10.062;2023-01-16T01:08:51;99561.06;;;7.58;79.02
17785;BME280;9016;53.582;10.062;2023-01-16T01:11:19;99553.88;;;7.60;78.94
17785;BME280;9016;53.582;10.062;2023-01-16T01:13:47;99558.41;;;7.58;78.67
17785;BME280;9016;53.582;10.062;2023-01-16T01:16:16;99557.63;;;7.43;78.82
17785;BME280;9016;53.582;10.062;2023-01-16T01:18:44;99557.97;;;7.51;77.77
17785;BME280;9016;53.582;10.062;2023-01-16T01:21:12;99559.34;;;7.57;77.54
17785;BME280;9016;53.582;10.062;2023-01-16T01:23:40;99557.34;;;7.60;77.25
17785;BME280;9016;53.582;10.062;2023-01-16T01:26:10;99553.28;;;7.55;77.23
17785;BME280;9016;53.582;10.062;2023-01-16T01:28:39;99551.22;;;7.60;77.37
17785;BME280;9016;53.582;10.062;2023-01-16T01:31:09;99542.94;;;7.64;76.09
17785;BME280;9016;53.582;10.062;2023-01-16T01:33:38;99547.72;;;7.72;75.55
17785;BME280;9016;53.582;10.062;2023-01-16T01:36:07;99546.31;;;7.54;75.16
17785;BME280;9016;53.582;10.062;2023-01-16T01:38:35;99548.63;;;7.58;76.89
17785;BME280;9016;53.582;10.062;2023-01-16T01:41:03;99538.09;;;7.71;75.90
17785;BME280;9016;53.582;10.062;2023-01-16T01:43:45;99529.59;;;7.78;74.24
17785;BME280;9016;53.582;10.062;2023-01-16T01:46:19;99538.59;;;7.63;74.87
17785;BME280;9016;53.582;10.062;2023-01-16T01:48:51;99524.63;;;7.74;75.17
17785;BME280;9016;53.582;10.062;2023-01-16T01:51:23;99523.97;;;7.70;74.91
17785;BME280;9016;53.582;10.062;2023-01-16T01:53:54;99521.75;;;7.77;75.19
17785;BME280;9016;53.582;10.062;2023-01-16T01:56:26;99516.22;;;7.67;75.46
17785;BME280;9016;53.582;10.062;2023-01-16T01:59:00;99515.56;;;7.64;76.61
17785;BME280;9016;53.582;10.062;2023-01-16T02:01:30;99504.22;;;7.62;75.50
17785;BME280;9016;53.582;10.062;2023-01-16T02:04:00;99509.53;;;7.62;76.70
17785;BME280;9016;53.582;10.062;2023-01-16T02:06:33;99506.03;;;7.61;76.79
17785;BME280;9016;53.582;10.062;2023-01-16T02:09:04;99505.94;;;7.63;77.23
17785;BME280;9016;53.582;10.062;2023-01-16T02:11:35;99496.94;;;7.65;75.88
17785;BME280;9016;53.582;10.062;2023-01-16T02:14:09;99493.22;;;7.68;75.85
17785;BME280;9016;53.582;10.062;2023-01-16T02:16:39;99493.00;;;7.71;76.26
17785;BME280;9016;53.582;10.062;2023-01-16T02:19:32;99490.38;;;7.71;76.08
17785;BME280;9016;53.582;10.062;2023-01-16T02:22:33;99484.50;;;7.66;76.24
17785;BME280;9016;53.582;10.062;2023-01-16T02:25:30;99477.94;;;7.59;76.22
17785;BME280;9016;53.582;10.062;2023-01-16T02:31:15;99468.28;;;7.58;77.26
17785;BME280;9016;53.582;10.062;2023-01-16T02:33:58;99475.19;;;7.73;77.16
17785;BME280;9016;53.582;10.062;2023-01-16T02:36:37;99475.41;;;7.70;76.70
17785;BME280;9016;53.582;10.062;2023-01-16T02:39:15;99473.91;;;7.66;76.50
17785;BME280;9016;53.582;10.062;2023-01-16T02:41:49;99475.41;;;7.70;75.99
17785;BME280;9016;53.582;10.062;2023-01-16T02:44:24;99470.53;;;7.76;75.99
17785;BME280;9016;53.582;10.062;2023-01-16T02:47:12;99460.97;;;7.86;75.96
17785;BME280;9016;53.582;10.062;2023-01-16T02:49:46;99456.09;;;7.93;75.92
17785;BME280;9016;53.582;10.062;2023-01-16T02:52:23;99445.19;;;7.85;75.68
17785;BME280;9016;53.582;10.062;2023-01-16T02:54:59;99456.19;;;7.79;75.47
17785;BME280;9016;53.582;10.062;2023-01-16T02:57:33;99451.44;;;7.71;75.82
17785;BME280;9016;53.582;10.062;2023-01-16T03:00:04;99447.84;;;7.60;75.66
17785;BME280;9016;53.582;10.062;2023-01-16T03:02:34;99442.94;;;7.54;76.84
17785;BME280;9016;53.582;10.062;2023-01-16T03:05:02;99444.53;;;7.56;76.83
17785;BME280;9016;53.582;10.062;2023-01-16T03:08:01;99440.94;;;7.70;75.64
17785;BME280;9016;53.582;10.062;2023-01-16T03:11:14;99441.78;;;7.58;75.78
17785;BME280;9016;53.582;10.062;2023-01-16T03:14:04;99430.56;;;7.67;75.84
17785;BME280;9016;53.582;10.062;2023-01-16T03:16:41;99425.47;;;7.76;76.62
17785;BME280;9016;53.582;10.062;2023-01-16T03:19:22;99421.53;;;7.82;75.88
17785;BME280;9016;53.582;10.062;2023-01-16T03:22:03;99420.44;;;7.84;76.17
17785;BME280;9016;53.582;10.062;2023-01-16T03:24:46;99412.50;;;7.84;76.42
17785;BME280;9016;53.582;10.062;2023-01-16T03:27:25;99414.09;;;7.87;76.96
17785;BME280;9016;53.582;10.062;2023-01-16T03:29:59;99398.31;;;7.85;76.40
17785;BME280;9016;53.582;10.062;2023-01-16T03:32:33;99396.81;;;7.81;76.99
17785;BME280;9016;53.582;10.062;2023-01-16T03:35:07;99391.63;;;7.80;76.79
17785;BME280;9016;53.582;10.062;2023-01-16T03:37:41;99387.78;;;7.84;76.81
17785;BME280;9016;53.582;10.062;2023-01-16T03:40:15;99392.06;;;7.74;76.99
17785;BME280;9016;53.582;10.062;2023-01-16T03:42:49;99389.41;;;7.74;77.66
17785;BME280;9016;53.582;10.062;2023-01-16T03:45:24;99383.59;;;7.69;76.88
17785;BME280;9016;53.582;10.062;2023-01-16T03:47:58;99380.06;;;7.68;77.69
17785;BME280;9016;53.582;10.062;2023-01-16T03:50:30;99374.53;;;7.71;77.95
17785;BME280;9016;53.582;10.062;2023-01-16T03:53:05;99365.00;;;7.81;77.15
17785;BME280;9016;53.582;10.062;2023-01-16T03:55:38;99363.31;;;7.68;77.69
17785;BME280;9016;53.582;10.062;2023-01-16T03:58:13;99362.38;;;7.69;77.55
17785;BME280;9016;53.582;10.062;2023-01-16T04:00:47;99364.06;;;7.70;77.47
17785;BME280;9016;53.582;10.062;2023-01-16T04:03:22;99352.50;;;7.71;77.67
17785;BME280;9016;53.582;10.062;2023-01-16T04:05:58;99349.78;;;7.60;76.79
17785;BME280;9016;53.582;10.062;2023-01-16T04:08:34;99359.72;;;7.56;77.38
17785;BME280;9016;53.582;10.062;2023-01-16T04:11:03;99346.78;;;7.52;77.25
17785;BME280;9016;53.582;10.062;2023-01-16T04:13:33;99345.28;;;7.60;78.22
17785;BME280;9016;53.582;10.062;2023-01-16T04:16:06;99342.88;;;7.45;77.17
17785;BME280;9016;53.582;10.062;2023-01-16T04:18:35;99344.88;;;7.54;77.94
17785;BME280;9016;53.582;10.062;2023-01-16T04:21:06;99336.72;;;7.57;77.99
17785;BME280;9016;53.582;10.062;2023-01-16T04:23:35;99339.16;;;7.60;78.08
17785;BME280;9016;53.582;10.062;2023-01-16T04:26:03;99333.63;;;7.63;77.79
17785;BME280;9016;53.582;10.062;2023-01-16T04:28:31;99328.44;;;7.74;76.90
17785;BME280;9016;53.582;10.062;2023-01-16T04:30:59;99323.22;;;7.72;77.16
17785;BME280;9016;53.582;10.062;2023-01-16T04:33:27;99321.72;;;7.81;76.66
17785;BME280;9016;53.582;10.062;2023-01-16T04:35:55;99321.94;;;7.78;76.14
17785;BME280;9016;53.582;10.062;2023-01-16T04:38:25;99302.66;;;7.76;76.11
17785;BME280;9016;53.582;10.062;2023-01-16T04:40:53;99301.47;;;7.80;76.34
17785;BME280;9016;53.582;10.062;2023-01-16T04:43:21;99297.88;;;7.81;75.69
17785;BME280;9016;53.582;10.062;2023-01-16T04:45:49;99300.00;;;7.76;75.98
17785;BME280;9016;53.582;10.062;2023-01-16T04:48:17;99299.78;;;7.79;75.91
17785;BME280;9016;53.582;10.062;2023-01-16T04:50:47;99295.94;;;7.83;74.74
17785;BME280;9016;53.582;10.062;2023-01-16T04:53:15;99300.69;;;7.90;74.93
17785;BME280;9016;53.582;10.062;2023-01-16T04:55:45;99289.47;;;7.87;74.91
17785;BME280;9016;53.582;10.062;2023-01-16T04:58:13;99284.78;;;7.90;74.59
17785;BME280;9016;53.582;10.062;2023-01-16T05:00:41;99273.75;;;7.84;74.94
17785;BME280;9016;53.582;10.062;2023-01-16T05:03:08;99284.09;;;7.76;74.25
17785;BME280;9016;53.582;10.062;2023-01-16T05:05:37;99278.78;;;7.76;74.25
17785;BME280;9016;53.582;10.062;2023-01-16T05:08:05;99286.41;;;7.80;74.91
17785;BME280;9016;53.582;10.062;2023-01-16T05:10:47;99280.28;;;7.80;74.30
17785;BME280;9016;53.582;10.062;2023-01-16T05:13:15;99281.84;;;7.82;74.77
17785;BME280;9016;53.582;10.062;2023-01-16T05:15:43;99278.13;;;7.85;74.45
17785;BME280;9016;53.582;10.062;2023-01-16T05:18:11;99267.00;;;7.80;74.58
17785;BME280;9016;53.582;10.062;2023-01-16T05:20:40;99262.97;;;7.87;75.04
17785;BME280;9016;53.582;10.062;2023-01-16T05:23:08;99266.78;;;7.83;73.65
17785;BME280;9016;53.582;10.062;2023-01-16T05:25:37;99261.59;;;7.81;74.45
17785;BME280;9016;53.582;10.062;2023-01-16T05:28:06;99260.41;;;7.85;73.50
17785;BME280;9016;53.582;10.062;2023-01-16T05:30:35;99258.94;;;7.81;74.23
17785;BME280;9016;53.582;10.062;2023-01-16T05:33:06;99259.06;;;7.80;74.23
17785;BME280;9016;53.582;10.062;2023-01-16T05:35:34;99260.66;;;7.70;74.65
17785;BME280;9016;53.582;10.062;2023-01-16T05:38:02;99263.81;;;7.75;74.64
17785;BME280;9016;53.582;10.062;2023-01-16T05:40:30;99255.06;;;7.74;74.43
17785;BME280;9016;53.582;10.062;2023-01-16T05:42:59;99248.47;;;7.80;74.80
17785;BME280;9016;53.582;10.062;2023-01-16T05:45:28;99249.63;;;7.76;74.40
17785;BME280;9016;53.582;10.062;2023-01-16T05:47:56;99243.72;;;7.72;74.16
17785;BME280;9016;53.582;10.062;2023-01-16T05:50:25;99243.09;;;7.69;74.97
17785;BME280;9016;53.582;10.062;2023-01-16T05:52:53;99237.22;;;7.76;74.25
17785;BME280;9016;53.582;10.062;2023-01-16T05:55:20;99242.41;;;7.78;73.85
17785;BME280;9016;53.582;10.062;2023-01-16T05:57:48;99243.09;;;7.69;73.83
17785;BME280;9016;53.582;10.062;2023-01-16T06:00:17;99238.41;;;7.72;73.67
17785;BME280;9016;53.582;10.062;2023-01-16T06:02:49;99237.34;;;7.62;74.42
17785;BME280;9016;53.582;10.062;2023-01-16T06:05:17;99227.38;;;7.66;73.95
17785;BME280;9016;53.582;10.062;2023-01-16T06:07:45;99228.13;;;7.68;73.04
17785;BME280;9016;53.582;10.062;2023-01-16T06:10:13;99216.28;;;7.61;73.61
17785;BME280;9016;53.582;10.062;2023-01-16T06:12:42;99213.94;;;7.56;74.03
17785;BME280;9016;53.582;10.062;2023-01-16T06:15:10;99213.75;;;7.59;73.55
17785;BME280;9016;53.582;10.062;2023-01-16T06:17:38;99206.50;;;7.38;75.23
17785;BME280;9016;53.582;10.062;2023-01-16T06:20:11;99209.09;;;7.50;74.91
17785;BME280;9016;53.582;10.062;2023-01-16T06:22:41;99206.16;;;7.42;74.60
17785;BME280;9016;53.582;10.062;2023-01-16T06:25:09;99198.75;;;7.35;75.44
17785;BME280;9016;53.582;10.062;2023-01-16T06:27:37;99200.84;;;7.42;74.90
17785;BME280;9016;53.582;10.062;2023-01-16T06:30:06;99200.81;;;7.55;75.13
17785;BME280;9016;53.582;10.062;2023-01-16T06:32:34;99201.44;;;7.58;74.94
17785;BME280;9016;53.582;10.062;2023-01-16T06:35:03;99197.28;;;7.67;74.68
17785;BME280;9016;53.582;10.062;2023-01-16T06:37:32;99185.31;;;7.61;74.94
17785;BME280;9016;53.582;10.062;2023-01-16T06:40:00;99191.13;;;7.66;75.08
17785;BME280;9016;53.582;10.062;2023-01-16T06:42:28;99191.75;;;7.70;74.64
17785;BME280;9016;53.582;10.062;2023-01-16T06:44:56;99178.66;;;7.56;74.73
17785;BME280;9016;53.582;10.062;2023-01-16T06:47:24;99178.66;;;7.56;75.00
17785;BME280;9016;53.582;10.062;2023-01-16T06:49:53;99169.63;;;7.58;75.09
17785;BME280;9016;53.582;10.062;2023-01-16T06:52:21;99178.19;;;7.62;75.12
17785;BME280;9016;53.582;10.062;2023-01-16T06:54:51;99173.91;;;7.48;75.13
17785;BME280;9016;53.582;10.062;2023-01-16T06:57:19;99172.75;;;7.52;75.49
17785;BME280;9016;53.582;10.062;2023-01-16T06:59:47;99172.56;;;7.43;75.60
17785;BME280;9016;53.582;10.062;2023-01-16T07:02:17;99167.25;;;7.43;75.89
17785;BME280;9016;53.582;10.062;2023-01-16T07:04:44;99167.88;;;7.46;75.59
17785;BME280;9016;53.582;10.062;2023-01-16T07:07:12;99163.19;;;7.50;75.17
17785;BME280;9016;53.582;10.062;2023-01-16T07:09:40;99156.44;;;7.46;75.97
17785;BME280;9016;53.582;10.062;2023-01-16T07:12:10;99157.28;;;7.46;76.36
17785;BME280;9016;53.582;10.062;2023-01-16T07:14:38;99151.94;;;7.59;76.33
17785;BME280;9016;53.582;10.062;2023-01-16T07:17:23;99148.53;;;7.57;76.51
17785;BME280;9016;53.582;10.062;2023-01-16T07:20:10;99142.50;;;7.55;76.36
17785;BME280;9016;53.582;10.062;2023-01-16T07:22:55;99135.53;;;7.54;75.89
17785;BME280;9016;53.582;10.062;2023-01-16T07:25:29;99142.25;;;7.34;76.40
17785;BME280;9016;53.582;10.062;2023-01-16T07:28:01;99138.31;;;7.40;76.89
17785;BME280;9016;53.582;10.062;2023-01-16T07:30:30;99145.22;;;7.42;77.03
17785;BME280;9016;53.582;10.062;2023-01-16T07:32:58;99135.59;;;7.41;77.23
17785;BME280;9016;53.582;10.062;2023-01-16T07:35:26;99136.63;;;7.39;76.78
17785;BME280;9016;53.582;10.062;2023-01-16T07:37:54;99128.81;;;7.37;76.36
17785;BME280;9016;53.582;10.062;2023-01-16T07:40:23;99124.81;;;7.32;77.32
17785;BME280;9016;53.582;10.062;2023-01-16T07:42:51;99128.00;;;7.24;76.91
17785;BME280;9016;53.582;10.062;2023-01-16T07:45:21;99129.06;;;7.22;77.52
17785;BME280;9016;53.582;10.062;2023-01-16T07:47:49;99121.59;;;7.16;77.41
17785;BME280;9016;53.582;10.062;2023-01-16T07:50:17;99120.84;;;7.14;77.21
17785;BME280;9016;53.582;10.062;2023-01-16T07:52:45;99119.47;;;7.08;77.36
17785;BME280;9016;53.582;10.062;2023-01-16T07:55:13;99119.56;;;7.07;77.02
17785;BME280;9016;53.582;10.062;2023-01-16T07:57:41;99118.00;;;7.04;77.59
17785;BME280;9016;53.582;10.062;2023-01-16T08:00:10;99112.81;;;7.03;78.26
17785;BME280;9016;53.582;10.062;2023-01-16T08:02:40;99106.78;;;7.00;77.81
17785;BME280;9016;53.582;10.062;2023-01-16T08:05:10;99092.56;;;7.01;77.37
17785;BME280;9016;53.582;10.062;2023-01-16T08:07:38;99097.47;;;6.95;77.05
17785;BME280;9016;53.582;10.062;2023-01-16T08:10:06;99094.84;;;6.82;77.89
17785;BME280;9016;53.582;10.062;2023-01-16T08:12:34;99086.06;;;6.82;77.85
17785;BME280;9016;53.582;10.062;2023-01-16T08:15:05;99092.00;;;6.85;78.04
17785;BME280;9016;53.582;10.062;2023-01-16T08:17:33;99086.69;;;6.85;77.85
17785;BME280;9016;53.582;10.062;2023-01-16T08:20:03;99090.41;;;6.83;77.93
17785;BME280;9016;53.582;10.062;2023-01-16T08:22:31;99081.63;;;6.70;78.47
17785;BME280;9016;53.582;10.062;2023-01-16T08:24:59;99080.97;;;6.79;78.19
17785;BME280;9016;53.582;10.062;2023-01-16T08:27:27;99086.50;;;6.76;77.66
17785;BME280;9016;53.582;10.062;2023-01-16T08:29:55;99086.63;;;6.74;77.64
17785;BME280;9016;53.582;10.062;2023-01-16T08:32:23;99082.69;;;6.80;78.02
17785;BME280;9016;53.582;10.062;2023-01-16T08:34:51;99080.16;;;6.78;78.14
17785;BME280;9016;53.582;10.062;2023-01-16T08:37:20;99067.44;;;6.83;77.96
17785;BME280;9016;53.582;10.062;2023-01-16T08:39:48;99065.72;;;6.82;77.62
17785;BME280;9016;53.582;10.062;2023-01-16T08:42:16;99054.75;;;6.76;77.25
17785;BME280;9016;53.582;10.062;2023-01-16T08:45:02;99061.72;;;6.77;77.20
17785;BME280;9016;53.582;10.062;2023-01-16T08:47:47;99060.25;;;6.73;77.94
17785;BME280;9016;53.582;10.062;2023-01-16T08:50:32;99055.50;;;6.65;77.31
17785;BME280;9016;53.582;10.062;2023-01-16T08:53:19;99048.72;;;6.74;77.58
17785;BME280;9016;53.582;10.062;2023-01-16T08:55:47;99042.25;;;6.78;77.51
17785;BME280;9016;53.582;10.062;2023-01-16T08:58:15;99045.06;;;6.87;77.00
17785;BME280;9016;53.582;10.062;2023-01-16T09:00:47;99034.81;;;6.83;77.27
17785;BME280;9016;53.582;10.062;2023-01-16T09:03:16;99026.75;;;6.84;77.17
17785;BME280;9016;53.582;10.062;2023-01-16T09:05:44;99017.63;;;6.88;76.58
17785;BME280;9016;53.582;10.062;2023-01-16T09:08:12;99022.94;;;6.88;76.92
17785;BME280;9016;53.582;10.062;2023-01-16T09:10:41;99020.41;;;6.87;76.93
17785;BME280;9016;53.582;10.062;2023-01-16T09:13:30;99019.13;;;6.92;76.45
17785;BME280;9016;53.582;10.062;2023-01-16T09:16:15;98999.47;;;6.71;77.13
17785;BME280;9016;53.582;10.062;2023-01-16T09:18:43;99005.94;;;6.80;77.00
17785;BME280;9016;53.582;10.062;2023-01-16T09:21:11;98999.34;;;6.85;76.74
17785;BME280;9016;53.582;10.062;2023-01-16T09:23:40;98994.06;;;6.85;76.75
17785;BME280;9016;53.582;10.062;2023-01-16T09:26:10;98993.94;;;6.87;77.06
17785;BME280;9016;53.582;10.062;2023-01-16T09:28:38;98984.13;;;7.00;76.62
17785;BME280;9016;53.582;10.062;2023-01-16T09:31:05;98980.44;;;7.03;75.67
17785;BME280;9016;53.582;10.062;2023-01-16T09:33:34;98972.13;;;7.07;75.76
17785;BME280;9016;53.582;10.062;2023-01-16T09:36:03;98968.31;;;6.87;76.57
17785;BME280;9016;53.582;10.062;2023-01-16T09:38:32;98984.25;;;6.98;76.80
17785;BME280;9016;53.582;10.062;2023-01-16T09:41:01;98980.69;;;7.11;75.48
17785;BME280;9016;53.582;10.062;2023-01-16T09:43:36;98967.50;;;7.22;75.29
17785;BME280;9016;53.582;10.062;2023-01-16T09:46:09;98950.69;;;7.34;74.66
17785;BME280;9016;53.582;10.062;2023-01-16T09:48:44;98951.44;;;7.36;74.11
17785;BME280;9016;53.582;10.062;2023-01-16T09:51:16;98949.72;;;7.35;74.32
17785;BME280;9016;53.582;10.062;2023-01-16T09:53:50;98939.16;;;7.46;73.66
17785;BME280;9016;53.582;10.062;2023-01-16T09:56:40;98943.44;;;7.25;74.27
17785;BME280;9016;53.582;10.062;2023-01-16T09:59:33;98940.34;;;7.42;73.86
17785;BME280;9016;53.582;10.062;2023-01-16T10:02:15;98934.84;;;7.45;73.86
17785;BME280;9016;53.582;10.062;2023-01-16T10:04:46;98928.31;;;7.38;73.93
17785;BME280;9016;53.582;10.062;2023-01-16T10:07:31;98925.19;;;7.44;73.99
17785;BME280;9016;53.582;10.062;2023-01-16T10:10:08;98926.06;;;7.55;73.40
17785;BME280;9016;53.582;10.062;2023-01-16T10:12:45;98918.00;;;7.68;73.91
17785;BME280;9016;53.582;10.062;2023-01-16T10:15:23;98915.59;;;7.65;72.86
17785;BME280;9016;53.582;10.062;2023-01-16T10:18:05;98911.63;;;7.59;73.06
17785;BME280;9016;53.582;10.062;2023-01-16T10:20:48;98908.59;;;7.64;74.01
17785;BME280;9016;53.582;10.062;2023-01-16T10:23:39;98887.78;;;7.81;73.38
17785;BME280;9016;53.582;10.062;2023-01-16T10:26:14;98885.47;;;7.88;73.83
17785;BME280;9016;53.582;10.062;2023-01-16T10:28:57;98889.94;;;8.10;71.82
17785;BME280;9016;53.582;10.062;2023-01-16T10:31:32;98892.47;;;8.11;72.24
17785;BME280;9016;53.582;10.062;2023-01-16T10:34:07;98874.13;;;8.08;71.28
17785;BME280;9016;53.582;10.062;2023-01-16T10:36:40;98871.88;;;8.26;71.00
17785;BME280;9016;53.582;10.062;2023-01-16T10:39:11;98869.31;;;8.13;71.40
17785;BME280;9016;53.582;10.062;2023-01-16T10:41:44;98857.25;;;8.20;70.80
17785;BME280;9016;53.582;10.062;2023-01-16T10:44:32;98850.75;;;8.35;69.94
17785;BME280;9016;53.582;10.062;2023-01-16T10:47:22;98855.44;;;8.43;69.84
17785;BME280;9016;53.582;10.062;2023-01-16T10:50:09;98852.66;;;8.22;70.02
17785;BME280;9016;53.582;10.062;2023-01-16T10:52:38;98836.63;;;8.24;69.73
17785;BME280;9016;53.582;10.062;2023-01-16T10:55:07;98838.31;;;8.14;70.78
17785;BME280;9016;53.582;10.062;2023-01-16T10:57:37;98833.59;;;8.28;70.38
17785;BME280;9016;53.582;10.062;2023-01-16T11:00:14;98823.50;;;8.33;69.10
17785;BME280;9016;53.582;10.062;2023-01-16T11:02:47;98814.09;;;8.29;69.66
17785;BME280;9016;53.582;10.062;2023-01-16T11:05:24;98803.47;;;8.29;68.65
17785;BME280;9016;53.582;10.062;2023-01-16T11:07:52;98797.72;;;8.13;70.22
17785;BME280;9016;53.582;10.062;2023-01-16T11:10:21;98777.53;;;8.22;69.72
17785;BME280;9016;53.582;10.062;2023-01-16T11:12:51;98780.56;;;8.28;68.90
17785;BME280;9016;53.582;10.062;2023-01-16T11:15:37;98761.88;;;8.30;68.07
17785;BME280;9016;53.582;10.062;2023-01-16T11:18:29;98751.50;;;8.16;69.44
17785;BME280;9016;53.582;10.062;2023-01-16T11:21:00;98751.63;;;8.14;69.40
17785;BME280;9016;53.582;10.062;2023-01-16T11:23:37;98741.75;;;8.16;68.24
17785;BME280;9016;53.582;10.062;2023-01-16T11:26:06;98741.47;;;8.19;68.49
17785;BME280;9016;53.582;10.062;2023-01-16T11:28:35;98729.69;;;8.12;68.91
17785;BME280;9016;53.582;10.062;2023-01-16T11:31:09;98724.97;;;8.27;68.60
17785;BME280;9016;53.582;10.062;2023-01-16T11:33:44;98714.72;;;8.22;68.28
17785;BME280;9016;53.582;10.062;2023-01-16T11:36:15;98702.41;;;8.21;67.66
17785;BME280;9016;53.582;10.062;2023-01-16T11:38:46;98691.47;;;8.26;68.30
17785;BME280;9016;53.582;10.062;2023-01-16T11:41:19;98686.59;;;8.31;67.93
17785;BME280;9016;53.582;10.062;2023-01-16T11:44:05;98667.91;;;8.32;67.85
17785;BME280;9016;53.582;10.062;2023-01-16T11:46:57;98662.59;;;8.32;67.95
17785;BME280;9016;53.582;10.062;2023-01-16T11:49:28;98662.22;;;8.37;66.88
17785;BME280;9016;53.582;10.062;2023-01-16T11:52:00;98645.00;;;8.31;67.41
17785;BME280;9016;53.582;10.062;2023-01-16T11:54:31;98637.63;;;8.35;67.29
17785;BME280;9016;53.582;10.062;2023-01-16T11:57:19;98634.34;;;8.42;66.92
17785;BME280;9016;53.582;10.062;2023-01-16T12:03:00;98613.63;;;8.36;66.32
17785;BME280;9016;53.582;10.062;2023-01-16T12:05:40;98605.28;;;8.41;66.49
17785;BME280;9016;53.582;10.062;2023-01-16T12:08:39;98598.59;;;8.46;66.71
17785;BME280;9016;53.582;10.062;2023-01-16T12:11:13;98590.75;;;8.45;66.70
17785;BME280;9016;53.582;10.062;2023-01-16T12:13:46;98588.56;;;8.50;66.45
17785;BME280;9016;53.582;10.062;2023-01-16T12:16:44;98564.44;;;8.32;66.39
17785;BME280;9016;53.582;10.062;2023-01-16T12:19:32;98559.69;;;8.26;66.34
17785;BME280;9016;53.582;10.062;2023-01-16T12:22:11;98560.72;;;8.24;67.13
17785;BME280;9016;53.582;10.062;2023-01-16T12:24:48;98548.41;;;8.13;67.93
17785;BME280;9016;53.582;10.062;2023-01-16T12:27:35;98538.22;;;7.97;67.94
17785;BME280;9016;53.582;10.062;2023-01-16T12:30:15;98530.34;;;8.07;67.19
17785;BME280;9016;53.582;10.062;2023-01-16T12:32:56;98524.25;;;8.16;67.10
17785;BME280;9016;53.582;10.062;2023-01-16T12:35:37;98516.50;;;8.03;67.19
17785;BME280;9016;53.582;10.062;2023-01-16T12:38:15;98512.28;;;8.01;67.17
17785;BME280;9016;53.582;10.062;2023-01-16T12:41:13;98490.94;;;8.02;67.23
17785;BME280;9016;53.582;10.062;2023-01-16T12:44:11;98499.47;;;8.06;66.46
17785;BME280;9016;53.582;10.062;2023-01-16T12:46:47;98483.63;;;7.95;66.06
17785;BME280;9016;53.582;10.062;2023-01-16T12:49:28;98478.53;;;8.03;66.68
17785;BME280;9016;53.582;10.062;2023-01-16T12:52:16;98459.78;;;7.95;65.82
17785;BME280;9016;53.582;10.062;2023-01-16T12:54:58;98458.56;;;7.99;65.72
17785;BME280;9016;53.582;10.062;2023-01-16T12:57:40;98443.28;;;7.91;65.87
17785;BME280;9016;53.582;10.062;2023-01-16T13:00:18;98447.44;;;8.05;66.57
17785;BME280;9016;53.582;10.062;2023-01-16T13:02:53;98442.81;;;8.07;65.76
17785;BME280;9016;53.582;10.062;2023-01-16T13:05:26;98444.50;;;8.08;65.94
17785;BME280;9016;53.582;10.062;2023-01-16T13:08:00;98445.34;;;8.09;65.66
17785;BME280;9016;53.582;10.062;2023-01-16T13:10:32;98435.97;;;8.04;65.28
17785;BME280;9016;53.582;10.062;2023-01-16T13:13:22;98431.50;;;8.05;65.08
17785;BME280;9016;53.582;10.062;2023-01-16T13:16:01;98419.81;;;8.17;64.86
17785;BME280;9016;53.582;10.062;2023-01-16T13:18:34;98413.38;;;8.10;65.28
17785;BME280;9016;53.582;10.062;2023-01-16T13:21:08;98416.16;;;8.09;65.44
17785;BME280;9016;53.582;10.062;2023-01-16T13:23:43;98410.72;;;8.10;65.51
17785;BME280;9016;53.582;10.062;2023-01-16T13:26:16;98411.53;;;8.01;65.54
17785;BME280;9016;53.582;10.062;2023-01-16T13:28:51;98415.03;;;8.01;64.95
17785;BME280;9016;53.582;10.062;2023-01-16T13:31:29;98416.84;;;8.01;65.99
17785;BME280;9016;53.582;10.062;2023-01-16T13:34:03;98405.03;;;8.15;65.19
17785;BME280;9016;53.582;10.062;2023-01-16T13:36:52;98402.25;;;8.16;64.98
17785;BME280;9016;53.582;10.062;2023-01-16T13:39:51;98404.00;;;7.96;65.55
17785;BME280;9016;53.582;10.062;2023-01-16T13:42:29;98400.88;;;7.91;66.09
17785;BME280;9016;53.582;10.062;2023-01-16T13:45:02;98383.75;;;7.95;66.02
17785;BME280;9016;53.582;10.062;2023-01-16T13:47:51;98387.94;;;7.98;65.88
17785;BME280;9016;53.582;10.062;2023-01-16T13:50:23;98377.88;;;7.92;66.65